METAR Data
IDs: Format: Raw Decoded Include TAF

Data at: 0718 UTC 18 Sep 2021

LSGS 180650Z 08004KT 9999 FEW050 14/12 Q1016